Time;durP1;ratioP1;P1;durP2;ratioP2;P2;SDS_P1;SDS_P2;PMS_P1;PMS_P2;Temp;Humidity;BMP_temperature;BMP_pressure;BME280_temperature;BME280_humidity;BME280_pressure;Samples;Min_cycle;Max_cycle;Signal;HPM_P1;HPM_P2
2024/04/03 00:02:08;;;;;;;;;;;;;;;7.77;98.86;97290.84;5068838;28;19950;-45
2024/04/03 00:04:35;;;;;;;;;;;;;;;7.77;99.25;97302.97;5067051;28;19935;-44
2024/04/03 00:07:00;;;;;;;;;;;;;;;7.65;100.00;97286.38;5070117;28;20015;-44
2024/04/03 00:09:25;;;;;;;;;;;;;;;7.55;100.00;97286.97;5068296;28;20058;-46
2024/04/03 00:11:50;;;;;;;;;;;;;;;7.58;100.00;97281.59;5073658;28;19925;-45
2024/04/03 00:14:16;;;;;;;;;;;;;;;7.48;100.00;97276.09;5068952;28;20277;-45
2024/04/03 00:16:41;;;;;;;;;;;;;;;7.63;100.00;97275.22;5062766;28;20367;-45
2024/04/03 00:19:06;;;;;;;;;;;;;;;7.49;100.00;97272.59;5068251;28;19934;-45
2024/04/03 00:21:31;;;;;;;;;;;;;;;7.57;100.00;97275.56;5064057;28;19929;-46
2024/04/03 00:23:57;;;;;;;;;;;;;;;7.61;100.00;97277.09;5066207;28;19938;-45
2024/04/03 00:26:22;;;;;;;;;;;;;;;7.57;100.00;97280.75;5069689;28;19937;-45
2024/04/03 00:28:49;;;;;;;;;;;;;;;7.62;100.00;97276.16;5065043;28;19912;-46
2024/04/03 00:31:14;;;;;;;;;;;;;;;7.64;100.00;97276.09;5070172;28;20041;-46
2024/04/03 00:33:39;;;;;;;;;;;;;;;7.73;100.00;97275.56;5063709;28;20011;-46
2024/04/03 00:36:05;;;;;;;;;;;;;;;7.79;100.00;97265.69;5064168;28;20012;-44
2024/04/03 00:38:30;;;;;;;;;;;;;;;7.64;100.00;97261.41;5060836;28;20032;-44
2024/04/03 00:40:59;;;;;;;;;;;;;;;7.77;100.00;97267.53;5058140;28;20262;-45
2024/04/03 00:43:25;;;;;;;;;;;;;;;7.89;100.00;97266.81;5069491;28;21195;-44
2024/04/03 00:45:51;;;;;;;;;;;;;;;7.72;100.00;97259.19;5065583;28;20415;-45
2024/04/03 00:48:16;;;;;;;;;;;;;;;7.90;100.00;97259.91;5063456;28;20022;-46
2024/04/03 00:50:43;;;;;;;;;;;;;;;7.87;100.00;97263.50;5062413;28;19939;-45
2024/04/03 00:53:08;;;;;;;;;;;;;;;7.83;100.00;97256.81;5065938;28;20311;-45
2024/04/03 00:55:34;;;;;;;;;;;;;;;7.87;100.00;97258.31;5073887;28;20313;-45
2024/04/03 00:58:01;;;;;;;;;;;;;;;7.88;100.00;97256.56;5067586;28;19931;-46
2024/04/03 01:00:26;;;;;;;;;;;;;;;7.81;100.00;97250.91;5063487;28;19937;-45
2024/04/03 01:02:51;;;;;;;;;;;;;;;7.96;100.00;97250.00;5074533;28;20341;-45
2024/04/03 01:05:16;;;;;;;;;;;;;;;7.92;100.00;97245.94;5066353;28;19940;-45
2024/04/03 01:07:42;;;;;;;;;;;;;;;7.83;100.00;97241.28;5065301;28;19912;-46
2024/04/03 01:10:08;;;;;;;;;;;;;;;7.79;100.00;97239.78;5066898;28;19926;-46
2024/04/03 01:12:33;;;;;;;;;;;;;;;7.94;100.00;97238.06;5069463;28;19933;-45
2024/04/03 01:14:59;;;;;;;;;;;;;;;7.86;100.00;97237.69;5064783;28;19944;-45
2024/04/03 01:17:24;;;;;;;;;;;;;;;7.91;100.00;97233.06;5058125;28;20008;-45
2024/04/03 01:19:50;;;;;;;;;;;;;;;7.81;100.00;97227.59;5074314;28;19925;-45
2024/04/03 01:22:15;;;;;;;;;;;;;;;7.76;100.00;97219.25;5058373;28;19935;-45
2024/04/03 01:24:40;;;;;;;;;;;;;;;7.77;100.00;97215.75;5069554;28;19964;-45
2024/04/03 01:27:05;;;;;;;;;;;;;;;7.78;100.00;97220.00;5065001;28;20413;-45
2024/04/03 01:29:31;;;;;;;;;;;;;;;7.66;100.00;97212.09;5067933;28;19957;-45
2024/04/03 01:31:56;;;;;;;;;;;;;;;7.50;100.00;97212.13;5072341;28;20029;-45
2024/04/03 01:34:21;;;;;;;;;;;;;;;7.49;100.00;97210.47;5055661;28;19916;-46
2024/04/03 01:36:47;;;;;;;;;;;;;;;7.47;100.00;97209.72;5065209;28;20019;-46
2024/04/03 01:39:12;;;;;;;;;;;;;;;7.38;100.00;97206.81;5064964;28;19978;-45
2024/04/03 01:41:38;;;;;;;;;;;;;;;7.34;100.00;97200.97;5062479;28;19936;-45
2024/04/03 01:44:03;;;;;;;;;;;;;;;7.26;100.00;97186.78;5073081;28;19942;-45
2024/04/03 01:46:28;;;;;;;;;;;;;;;7.20;100.00;97197.50;5069168;28;20056;-45
2024/04/03 01:48:53;;;;;;;;;;;;;;;7.28;100.00;97190.97;5075939;28;21300;-45
2024/04/03 01:51:18;;;;;;;;;;;;;;;7.26;100.00;97198.00;5059631;28;19916;-45
2024/04/03 01:53:44;;;;;;;;;;;;;;;7.02;100.00;97189.00;5071164;28;20303;-45
2024/04/03 01:56:09;;;;;;;;;;;;;;;7.07;100.00;97199.94;5075655;28;20388;-47
2024/04/03 01:58:34;;;;;;;;;;;;;;;7.10;100.00;97197.16;5065877;28;19912;-44
2024/04/03 02:00:59;;;;;;;;;;;;;;;7.24;100.00;97205.03;5076374;28;20296;-45
2024/04/03 02:03:25;;;;;;;;;;;;;;;7.07;100.00;97197.34;5071783;28;19945;-44
2024/04/03 02:05:50;;;;;;;;;;;;;;;7.20;100.00;97205.25;5068757;28;20034;-45
2024/04/03 02:08:15;;;;;;;;;;;;;;;7.18;100.00;97200.19;5058461;28;20012;-45
2024/04/03 02:10:42;;;;;;;;;;;;;;;7.14;100.00;97192.66;5071552;28;19987;-48
2024/04/03 02:13:07;;;;;;;;;;;;;;;6.99;100.00;97184.00;5066957;28;20069;-45
2024/04/03 02:15:32;;;;;;;;;;;;;;;7.29;100.00;97182.28;5063660;28;20031;-45
2024/04/03 02:17:58;;;;;;;;;;;;;;;7.21;100.00;97179.28;5070710;28;20352;-45
2024/04/03 02:20:23;;;;;;;;;;;;;;;7.08;100.00;97173.13;5069917;28;20396;-44
2024/04/03 02:22:48;;;;;;;;;;;;;;;7.30;100.00;97177.94;5070597;28;20247;-44
2024/04/03 02:25:14;;;;;;;;;;;;;;;7.25;100.00;97173.03;5070766;28;20300;-44
2024/04/03 02:27:39;;;;;;;;;;;;;;;7.43;100.00;97164.22;5064234;28;19920;-45
2024/04/03 02:30:05;;;;;;;;;;;;;;;7.21;100.00;97163.78;5068924;28;19941;-44
2024/04/03 02:32:30;;;;;;;;;;;;;;;7.33;100.00;97167.41;5058700;28;19988;-45
2024/04/03 02:34:55;;;;;;;;;;;;;;;7.39;100.00;97162.75;5074013;28;19931;-45
2024/04/03 02:37:21;;;;;;;;;;;;;;;7.36;100.00;97160.31;5072586;28;19929;-44
2024/04/03 02:39:46;;;;;;;;;;;;;;;7.53;100.00;97165.38;5068586;28;19963;-45
2024/04/03 02:42:11;;;;;;;;;;;;;;;7.25;100.00;97161.84;5067126;28;19917;-45
2024/04/03 02:44:36;;;;;;;;;;;;;;;7.43;100.00;97153.03;5074286;28;19949;-45
2024/04/03 02:47:02;;;;;;;;;;;;;;;7.42;100.00;97152.19;5073613;28;19923;-45
2024/04/03 02:49:27;;;;;;;;;;;;;;;7.42;100.00;97156.56;5064236;28;19950;-45
2024/04/03 02:51:52;;;;;;;;;;;;;;;7.50;100.00;97144.81;5066017;28;20306;-44
2024/04/03 02:54:17;;;;;;;;;;;;;;;7.43;100.00;97150.47;5060797;28;20347;-45
2024/04/03 02:56:42;;;;;;;;;;;;;;;7.58;100.00;97147.81;5071081;28;20356;-44
2024/04/03 02:59:08;;;;;;;;;;;;;;;7.68;100.00;97148.94;5072149;28;20055;-44
2024/04/03 03:01:33;;;;;;;;;;;;;;;7.70;100.00;97139.31;5062698;28;19939;-44
2024/04/03 03:04:00;;;;;;;;;;;;;;;7.72;100.00;97134.91;5067245;28;19943;-46
2024/04/03 03:06:25;;;;;;;;;;;;;;;7.85;100.00;97135.84;5074043;28;19920;-46
2024/04/03 03:08:50;;;;;;;;;;;;;;;7.75;100.00;97129.53;5066938;28;20399;-45
2024/04/03 03:11:15;;;;;;;;;;;;;;;7.61;100.00;97132.09;5070415;28;20438;-45
2024/04/03 03:13:41;;;;;;;;;;;;;;;7.64;100.00;97125.91;5067059;28;19951;-47
2024/04/03 03:16:06;;;;;;;;;;;;;;;7.60;100.00;97120.06;5072320;28;20320;-46
2024/04/03 03:18:35;;;;;;;;;;;;;;;7.56;100.00;97116.00;5067341;28;19945;-46
2024/04/03 03:21:00;;;;;;;;;;;;;;;7.59;100.00;97107.22;5060306;28;19913;-45
2024/04/03 03:23:25;;;;;;;;;;;;;;;7.62;100.00;97102.69;5066231;28;19923;-48
2024/04/03 03:25:51;;;;;;;;;;;;;;;7.68;100.00;97091.97;5074341;28;19913;-45
2024/04/03 03:28:17;;;;;;;;;;;;;;;7.64;100.00;97092.25;5059592;28;20258;-45
2024/04/03 03:30:50;;;;;;;;;;;;;;;7.60;100.00;97086.41;5066310;28;19939;-45
2024/04/03 03:33:15;;;;;;;;;;;;;;;7.62;100.00;97089.75;5067514;28;19921;-44
2024/04/03 03:35:41;;;;;;;;;;;;;;;7.78;100.00;97087.09;5066098;28;19977;-47
2024/04/03 03:38:06;;;;;;;;;;;;;;;7.63;100.00;97085.41;5058048;28;19926;-46
2024/04/03 03:40:32;;;;;;;;;;;;;;;7.52;100.00;97085.19;5066437;28;19938;-45
2024/04/03 03:42:57;;;;;;;;;;;;;;;7.42;100.00;97084.91;5072944;28;19931;-45
2024/04/03 03:45:22;;;;;;;;;;;;;;;7.42;100.00;97079.72;5066219;28;19933;-45
2024/04/03 03:47:48;;;;;;;;;;;;;;;7.56;100.00;97071.16;5068761;28;19936;-45
2024/04/03 03:52:57;;;;;;;;;;;;;;;7.59;100.00;97065.78;5066269;28;20410;-45
2024/04/03 03:55:26;;;;;;;;;;;;;;;7.52;100.00;97065.34;5056244;28;19925;-46
2024/04/03 03:57:51;;;;;;;;;;;;;;;7.53;100.00;97072.19;5067396;28;19939;-45
2024/04/03 04:00:17;;;;;;;;;;;;;;;7.58;100.00;97070.16;5064853;28;19994;-45
2024/04/03 04:02:42;;;;;;;;;;;;;;;7.57;100.00;97071.06;5073305;28;19970;-45
2024/04/03 04:05:07;;;;;;;;;;;;;;;7.61;100.00;97074.31;5071691;28;19950;-44
2024/04/03 04:07:32;;;;;;;;;;;;;;;7.47;100.00;97064.78;5055130;28;20112;-45
2024/04/03 04:09:58;;;;;;;;;;;;;;;7.54;100.00;97058.31;5070826;28;19955;-45
2024/04/03 04:12:23;;;;;;;;;;;;;;;7.54;100.00;97063.47;5068895;28;19957;-44
2024/04/03 04:14:49;;;;;;;;;;;;;;;7.52;100.00;97065.34;5056804;28;19944;-45
2024/04/03 04:17:15;;;;;;;;;;;;;;;7.71;100.00;97060.72;5062024;28;19930;-45
2024/04/03 04:19:40;;;;;;;;;;;;;;;7.63;100.00;97062.91;5061919;28;20400;-46
2024/04/03 04:22:05;;;;;;;;;;;;;;;7.60;100.00;97064.88;5070628;28;20456;-45
2024/04/03 04:24:31;;;;;;;;;;;;;;;7.60;100.00;97067.44;5060635;28;20279;-47
2024/04/03 04:27:01;;;;;;;;;;;;;;;7.69;100.00;97065.16;5068373;28;20309;-45
2024/04/03 04:29:30;;;;;;;;;;;;;;;7.78;100.00;97062.03;5064973;28;19939;-45
2024/04/03 04:31:55;;;;;;;;;;;;;;;7.79;100.00;97066.28;5058798;28;19952;-46
2024/04/03 04:34:20;;;;;;;;;;;;;;;7.70;100.00;97063.41;5055511;28;20031;-46
2024/04/03 04:36:45;;;;;;;;;;;;;;;7.74;100.00;97065.72;5066672;28;20034;-46
2024/04/03 04:39:11;;;;;;;;;;;;;;;7.71;100.00;97063.31;5063268;28;20009;-46
2024/04/03 04:41:36;;;;;;;;;;;;;;;7.62;100.00;97063.84;5059606;28;19966;-45
2024/04/03 04:44:01;;;;;;;;;;;;;;;7.64;100.00;97058.59;5062013;28;19959;-46
2024/04/03 04:46:27;;;;;;;;;;;;;;;7.62;100.00;97056.09;5057728;28;20279;-45
2024/04/03 04:48:52;;;;;;;;;;;;;;;7.67;100.00;97054.06;5059818;28;19986;-45
2024/04/03 04:51:19;;;;;;;;;;;;;;;7.66;100.00;97060.16;5064197;28;20009;-45
2024/04/03 04:53:44;;;;;;;;;;;;;;;7.62;100.00;97050.91;5063811;28;20682;-45
2024/04/03 04:56:10;;;;;;;;;;;;;;;7.57;100.00;97060.69;5058318;28;19936;-45
2024/04/03 04:58:35;;;;;;;;;;;;;;;7.52;100.00;97054.97;5061110;28;20276;-45
2024/04/03 05:01:01;;;;;;;;;;;;;;;7.62;100.00;97056.09;5066109;28;19977;-46
2024/04/03 05:03:27;;;;;;;;;;;;;;;7.46;100.00;97060.53;5057442;28;19942;-45
2024/04/03 05:05:52;;;;;;;;;;;;;;;7.58;100.00;97059.78;5056745;28;19936;-46
2024/04/03 05:08:20;;;;;;;;;;;;;;;7.63;100.00;97067.28;5061774;28;19930;-45
2024/04/03 05:10:52;;;;;;;;;;;;;;;7.74;100.00;97068.31;5055945;28;20291;-45
2024/04/03 05:13:18;;;;;;;;;;;;;;;7.68;100.00;97071.25;5052724;28;20312;-46
2024/04/03 05:15:45;;;;;;;;;;;;;;;7.73;100.00;97074.41;5061476;28;19935;-46
2024/04/03 05:18:10;;;;;;;;;;;;;;;7.85;100.00;97078.88;5059959;28;20338;-46
2024/04/03 05:20:35;;;;;;;;;;;;;;;7.75;100.00;97072.56;5065871;28;20020;-47
2024/04/03 05:23:00;;;;;;;;;;;;;;;7.85;100.00;97073.69;5063781;28;19929;-46
2024/04/03 05:25:26;;;;;;;;;;;;;;;7.81;100.00;97077.38;5070114;28;20253;-45
2024/04/03 05:27:51;;;;;;;;;;;;;;;7.93;100.00;97081.81;5064623;28;19924;-45
2024/04/03 05:30:16;;;;;;;;;;;;;;;7.92;100.00;97080.16;5064580;28;19938;-46
2024/04/03 05:32:41;;;;;;;;;;;;;;;7.93;100.00;97088.75;5068296;28;19967;-46
2024/04/03 05:35:07;;;;;;;;;;;;;;;7.91;100.00;97082.84;5066219;28;19936;-45
2024/04/03 05:37:32;;;;;;;;;;;;;;;7.99;100.00;97086.63;5063715;28;19945;-45
2024/04/03 05:39:57;;;;;;;;;;;;;;;7.95;100.00;97079.13;5068298;28;19933;-44
2024/04/03 05:42:23;;;;;;;;;;;;;;;7.97;100.00;97087.66;5063931;28;19930;-45
2024/04/03 05:44:48;;;;;;;;;;;;;;;7.91;100.00;97085.41;5067651;28;19927;-45
2024/04/03 05:47:13;;;;;;;;;;;;;;;8.02;100.00;97091.59;5064471;28;19935;-46
2024/04/03 05:49:38;;;;;;;;;;;;;;;7.90;100.00;97101.88;5068633;28;20015;-45
2024/04/03 05:52:04;;;;;;;;;;;;;;;8.12;100.00;97092.72;5064070;28;19987;-45
2024/04/03 05:54:29;;;;;;;;;;;;;;;8.17;100.00;97090.69;5068028;28;19994;-45
2024/04/03 05:56:54;;;;;;;;;;;;;;;8.17;100.00;97101.06;5068968;28;19926;-45
2024/04/03 05:59:20;;;;;;;;;;;;;;;8.31;100.00;97095.91;5068962;28;19920;-46
2024/04/03 06:01:46;;;;;;;;;;;;;;;8.40;100.00;97092.72;5062993;28;19940;-46
2024/04/03 06:04:11;;;;;;;;;;;;;;;8.51;100.00;97094.66;5062285;28;20151;-45
2024/04/03 06:06:36;;;;;;;;;;;;;;;8.44;100.00;97106.31;5071529;28;20334;-46
2024/04/03 06:09:04;;;;;;;;;;;;;;;8.33;100.00;97103.56;5065175;28;19920;-46
2024/04/03 06:11:29;;;;;;;;;;;;;;;8.39;100.00;97101.44;5057412;28;19921;-45
2024/04/03 06:13:54;;;;;;;;;;;;;;;8.61;100.00;97106.94;5066782;28;19923;-45
2024/04/03 06:16:19;;;;;;;;;;;;;;;8.69;100.00;97107.28;5070117;28;19938;-46
2024/04/03 06:18:45;;;;;;;;;;;;;;;8.75;100.00;97109.50;5066101;28;19935;-47
2024/04/03 06:21:14;;;;;;;;;;;;;;;8.90;100.00;97105.91;5066023;28;19935;-46
2024/04/03 06:23:39;;;;;;;;;;;;;;;9.05;100.00;97111.88;5070350;28;19964;-47
2024/04/03 06:26:05;;;;;;;;;;;;;;;9.07;100.00;97110.88;5057004;28;19935;-46
2024/04/03 06:28:30;;;;;;;;;;;;;;;9.10;100.00;97115.88;5064907;28;19928;-47
2024/04/03 06:30:55;;;;;;;;;;;;;;;9.07;100.00;97110.88;5070491;28;19974;-45
2024/04/03 06:33:20;;;;;;;;;;;;;;;9.15;100.00;97108.59;5068147;28;20011;-45
2024/04/03 06:35:45;;;;;;;;;;;;;;;9.11;100.00;97112.34;5066576;28;19917;-46
2024/04/03 06:38:11;;;;;;;;;;;;;;;9.24;100.00;97091.59;5070196;28;19959;-48
2024/04/03 06:40:36;;;;;;;;;;;;;;;9.31;100.00;97093.72;5062503;28;20406;-46
2024/04/03 06:43:03;;;;;;;;;;;;;;;9.39;100.00;97094.03;5065772;28;19940;-46
2024/04/03 06:45:29;;;;;;;;;;;;;;;9.55;100.00;97091.25;5067963;28;19988;-46
2024/04/03 06:47:54;;;;;;;;;;;;;;;9.75;100.00;97109.75;5068277;28;20398;-47
2024/04/03 06:50:20;;;;;;;;;;;;;;;9.71;99.75;97118.69;5062986;28;19917;-46
2024/04/03 06:52:45;;;;;;;;;;;;;;;9.80;99.18;97115.47;5057196;28;19981;-46
2024/04/03 06:55:11;;;;;;;;;;;;;;;9.85;96.43;97121.19;5057593;28;20331;-46
2024/04/03 06:57:36;;;;;;;;;;;;;;;9.88;93.08;97120.16;5069507;28;19936;-46
2024/04/03 07:00:02;;;;;;;;;;;;;;;10.01;90.37;97121.81;5072520;28;19938;-47
2024/04/03 07:02:28;;;;;;;;;;;;;;;9.97;90.70;97130.78;5067756;28;19913;-48
2024/04/03 07:04:53;;;;;;;;;;;;;;;9.98;90.57;97141.97;5071768;28;20017;-46
2024/04/03 07:07:19;;;;;;;;;;;;;;;9.95;90.27;97152.59;5067645;28;19982;-46
2024/04/03 07:09:44;;;;;;;;;;;;;;;9.92;90.94;97152.78;5064864;28;19998;-46
2024/04/03 07:12:09;;;;;;;;;;;;;;;9.89;90.29;97148.63;5003487;28;1802124;-47
2024/04/03 07:14:35;;;;;;;;;;;;;;;10.06;90.80;97150.97;5060312;28;19983;-46
2024/04/03 07:17:00;;;;;;;;;;;;;;;10.14;89.37;97142.66;5062543;28;19928;-46
2024/04/03 07:19:25;;;;;;;;;;;;;;;10.17;88.77;97137.25;5059858;28;19932;-46
2024/04/03 07:21:51;;;;;;;;;;;;;;;10.20;87.69;97148.25;5061905;28;19916;-47
2024/04/03 07:24:16;;;;;;;;;;;;;;;10.25;87.66;97151.38;5063003;28;19927;-46
2024/04/03 07:26:41;;;;;;;;;;;;;;;10.35;87.74;97160.19;5066737;28;19940;-47
2024/04/03 07:29:12;;;;;;;;;;;;;;;10.45;88.54;97153.44;5057498;28;19938;-46
2024/04/03 07:31:37;;;;;;;;;;;;;;;10.53;86.62;97166.75;5064980;28;19948;-46
2024/04/03 07:34:02;;;;;;;;;;;;;;;10.71;85.91;97155.06;5067372;28;19920;-48
2024/04/03 07:36:28;;;;;;;;;;;;;;;10.77;85.47;97156.38;5070464;28;20362;-47
2024/04/03 07:38:53;;;;;;;;;;;;;;;10.91;86.26;97151.88;5067966;28;19934;-48
2024/04/03 07:41:23;;;;;;;;;;;;;;;11.04;85.47;97143.06;5066063;28;20366;-46
2024/04/03 07:43:50;;;;;;;;;;;;;;;11.10;84.09;97144.44;5058481;28;19935;-48
2024/04/03 07:46:15;;;;;;;;;;;;;;;11.40;83.54;97155.22;5063753;28;19975;-46
2024/04/03 07:48:40;;;;;;;;;;;;;;;11.59;84.26;97142.53;5067116;28;19920;-47
2024/04/03 07:51:06;;;;;;;;;;;;;;;11.72;83.53;97145.91;5063222;28;20413;-47
2024/04/03 07:53:32;;;;;;;;;;;;;;;11.80;83.34;97148.75;5066682;28;19993;-47
2024/04/03 07:55:57;;;;;;;;;;;;;;;11.92;81.90;97143.44;5064283;28;20345;-47
2024/04/03 07:58:23;;;;;;;;;;;;;;;12.08;81.17;97148.34;5065663;28;19927;-46
2024/04/03 08:00:56;;;;;;;;;;;;;;;12.24;81.13;97144.44;5065518;28;19940;-47
2024/04/03 08:03:22;;;;;;;;;;;;;;;12.30;79.54;97137.94;5064807;28;19960;-48
2024/04/03 08:05:51;;;;;;;;;;;;;;;12.12;78.31;97139.34;5065721;28;19976;-45
2024/04/03 08:08:16;;;;;;;;;;;;;;;12.48;77.44;97136.50;5062071;28;20027;-45
2024/04/03 08:10:41;;;;;;;;;;;;;;;12.15;77.29;97133.88;5059597;28;20030;-48
2024/04/03 08:13:06;;;;;;;;;;;;;;;11.87;78.56;97129.09;5066561;28;20341;-47
2024/04/03 08:15:31;;;;;;;;;;;;;;;11.97;77.56;97130.09;5070081;28;19946;-48
2024/04/03 08:17:57;;;;;;;;;;;;;;;12.01;77.89;97131.50;5065243;28;20403;-45
2024/04/03 08:20:22;;;;;;;;;;;;;;;12.07;78.71;97131.03;5063385;28;20269;-47
2024/04/03 08:22:47;;;;;;;;;;;;;;;12.22;77.87;97135.06;5062417;28;19997;-48
2024/04/03 08:25:13;;;;;;;;;;;;;;;12.65;77.89;97139.47;5063376;28;19998;-47
2024/04/03 08:27:38;;;;;;;;;;;;;;;12.44;79.47;97135.09;5070076;28;20013;-47
2024/04/03 08:30:04;;;;;;;;;;;;;;;12.99;79.32;97132.44;5064553;28;19912;-48
2024/04/03 08:32:29;;;;;;;;;;;;;;;14.13;75.97;97131.59;5064643;28;19948;-48
2024/04/03 08:34:55;;;;;;;;;;;;;;;14.06;75.85;97121.75;5064476;28;19970;-45
2024/04/03 08:37:20;;;;;;;;;;;;;;;13.61;76.79;97109.88;5065427;28;20003;-48
2024/04/03 08:39:50;;;;;;;;;;;;;;;13.86;77.35;97110.34;5069842;28;19946;-46
2024/04/03 08:42:15;;;;;;;;;;;;;;;14.54;73.60;97115.00;5071676;28;19944;-47
2024/04/03 08:44:41;;;;;;;;;;;;;;;14.71;72.86;97098.66;5066401;28;19947;-46
2024/04/03 08:47:07;;;;;;;;;;;;;;;14.20;71.47;97101.34;5067172;28;19931;-47
2024/04/03 08:49:33;;;;;;;;;;;;;;;13.48;70.37;97093.53;5064425;28;19939;-47
2024/04/03 08:52:10;;;;;;;;;;;;;;;13.54;71.24;97093.03;5070154;28;19928;-46
2024/04/03 08:54:38;;;;;;;;;;;;;;;13.30;72.13;97089.84;5066766;28;20408;-50
2024/04/03 08:57:05;;;;;;;;;;;;;;;14.19;70.85;97091.84;5066593;28;20282;-46
2024/04/03 08:59:31;;;;;;;;;;;;;;;14.74;68.99;97093.16;5065633;28;19933;-46
2024/04/03 09:01:56;;;;;;;;;;;;;;;14.17;66.79;97092.91;5067516;28;19917;-48
2024/04/03 09:04:22;;;;;;;;;;;;;;;14.05;68.16;97083.47;5067068;28;20390;-44
2024/04/03 09:06:48;;;;;;;;;;;;;;;14.09;67.99;97079.66;5065863;28;20021;-45
2024/04/03 09:09:16;;;;;;;;;;;;;;;14.31;67.09;97085.53;5063817;28;19957;-46
2024/04/03 09:11:42;;;;;;;;;;;;;;;13.97;67.07;97070.22;5063516;28;19920;-47
2024/04/03 09:14:08;;;;;;;;;;;;;;;14.06;68.58;97074.66;5065026;28;20486;-47
2024/04/03 09:16:33;;;;;;;;;;;;;;;14.16;68.39;97080.78;5067490;28;20050;-47
2024/04/03 09:19:03;;;;;;;;;;;;;;;14.02;68.06;97079.31;5066106;28;20006;-47
2024/04/03 09:21:28;;;;;;;;;;;;;;;14.06;66.01;97069.44;5068569;28;19945;-47
2024/04/03 09:23:53;;;;;;;;;;;;;;;14.42;65.04;97076.81;5067323;28;20070;-47
2024/04/03 09:26:19;;;;;;;;;;;;;;;14.43;64.29;97075.84;5065065;28;19920;-46
2024/04/03 09:28:45;;;;;;;;;;;;;;;15.90;61.22;97065.06;5065965;28;19920;-48
2024/04/03 09:31:10;;;;;;;;;;;;;;;15.54;61.26;97069.25;5067965;28;20013;-47
2024/04/03 09:33:36;;;;;;;;;;;;;;;16.25;61.01;97067.88;5065910;28;20291;-47
2024/04/03 09:36:04;;;;;;;;;;;;;;;17.14;58.48;97061.75;5067766;28;19990;-48
2024/04/03 09:38:31;;;;;;;;;;;;;;;17.66;56.81;97068.81;5064644;28;19944;-47
2024/04/03 09:41:01;;;;;;;;;;;;;;;18.32;54.24;97064.69;5064175;28;19931;-46
2024/04/03 09:43:28;;;;;;;;;;;;;;;17.39;54.45;97061.00;5064144;28;19917;-47
2024/04/03 09:45:56;;;;;;;;;;;;;;;18.66;53.31;97049.69;5070298;28;19923;-48
2024/04/03 09:48:25;;;;;;;;;;;;;;;18.75;51.67;97053.19;5067848;28;19943;-47
2024/04/03 09:50:50;;;;;;;;;;;;;;;19.29;51.52;97053.53;5064615;28;19951;-47
2024/04/03 09:53:17;;;;;;;;;;;;;;;20.01;49.66;97056.19;5064365;28;19931;-47
2024/04/03 09:55:43;;;;;;;;;;;;;;;18.05;51.76;97049.03;5072431;28;20378;-48
2024/04/03 09:58:12;;;;;;;;;;;;;;;18.04;51.30;97051.84;5069343;28;20289;-46
2024/04/03 10:00:38;;;;;;;;;;;;;;;17.75;50.33;97046.84;5063650;28;19936;-48
2024/04/03 10:03:04;;;;;;;;;;;;;;;18.34;50.40;97043.47;5066741;28;19978;-48
2024/04/03 10:05:36;;;;;;;;;;;;;;;18.49;49.05;97042.72;5067889;28;19931;-47
2024/04/03 10:08:11;;;;;;;;;;;;;;;18.39;49.91;97042.00;5070984;28;20011;-48
2024/04/03 10:10:43;;;;;;;;;;;;;;;17.02;53.16;97036.66;5072997;28;19970;-48
2024/04/03 10:13:11;;;;;;;;;;;;;;;17.04;53.38;97025.97;5069495;28;19912;-47
2024/04/03 10:15:36;;;;;;;;;;;;;;;16.69;54.69;97038.25;5068847;28;20350;-47
2024/04/03 10:18:02;;;;;;;;;;;;;;;16.75;54.18;97035.03;5069875;28;19920;-49
2024/04/03 10:20:45;;;;;;;;;;;;;;;16.35;54.38;97029.28;5072367;28;20355;-47
2024/04/03 10:23:11;;;;;;;;;;;;;;;16.01;55.88;97039.47;5072614;28;19941;-46
2024/04/03 10:25:37;;;;;;;;;;;;;;;16.63;55.95;97028.34;5069093;28;20002;-47
2024/04/03 10:28:07;;;;;;;;;;;;;;;16.58;56.06;97041.06;5067862;28;20010;-47
2024/04/03 10:30:33;;;;;;;;;;;;;;;16.04;56.45;97041.00;5061520;28;19921;-47
2024/04/03 10:32:58;;;;;;;;;;;;;;;16.24;57.97;97037.34;5066902;28;19923;-47
2024/04/03 10:35:24;;;;;;;;;;;;;;;15.95;59.89;97034.00;5065418;28;19920;-46
2024/04/03 10:37:50;;;;;;;;;;;;;;;15.79;62.26;97036.38;5063733;28;20351;-47
2024/04/03 10:40:16;;;;;;;;;;;;;;;15.87;64.09;97049.59;5056285;28;19946;-47
2024/04/03 10:42:41;;;;;;;;;;;;;;;15.62;65.17;97051.03;5064674;28;19940;-47
2024/04/03 10:45:08;;;;;;;;;;;;;;;15.62;65.22;97053.66;5067271;28;19912;-47
2024/04/03 10:47:34;;;;;;;;;;;;;;;15.34;65.54;97051.88;5062837;28;19949;-47
2024/04/03 10:49:59;;;;;;;;;;;;;;;15.80;65.66;97053.75;5058434;28;19927;-47
2024/04/03 10:52:24;;;;;;;;;;;;;;;15.87;67.64;97055.69;5067430;28;19951;-47
2024/04/03 10:54:49;;;;;;;;;;;;;;;15.42;67.62;97054.63;5065245;28;19963;-48
2024/04/03 10:57:14;;;;;;;;;;;;;;;15.80;65.91;97053.75;5065543;28;19919;-49
2024/04/03 10:59:41;;;;;;;;;;;;;;;16.01;64.41;97052.59;5068157;28;20029;-47
2024/04/03 11:02:09;;;;;;;;;;;;;;;15.93;64.19;97056.91;5066311;28;19929;-48
2024/04/03 11:04:35;;;;;;;;;;;;;;;16.26;63.56;97072.16;5064262;28;20033;-44
2024/04/03 11:07:00;;;;;;;;;;;;;;;15.31;63.79;97072.28;5059603;28;19988;-44
2024/04/03 11:09:30;;;;;;;;;;;;;;;15.37;65.63;97069.94;5059882;28;19920;-44
2024/04/03 11:12:00;;;;;;;;;;;;;;;15.28;66.12;97072.53;5064514;28;20300;-45
2024/04/03 11:14:25;;;;;;;;;;;;;;;15.94;65.50;97072.53;5067324;28;19920;-45
2024/04/03 11:16:51;;;;;;;;;;;;;;;15.95;64.88;97074.16;5068035;28;20471;-45
2024/04/03 11:19:16;;;;;;;;;;;;;;;16.12;65.56;97083.94;5067028;28;20360;-44
2024/04/03 11:21:41;;;;;;;;;;;;;;;15.76;65.43;97076.81;5067468;28;19952;-45
2024/04/03 11:24:09;;;;;;;;;;;;;;;15.15;66.17;97067.56;5068959;28;19965;-45
2024/04/03 11:26:34;;;;;;;;;;;;;;;15.46;67.37;97071.75;5067696;28;19934;-46
2024/04/03 11:28:59;;;;;;;;;;;;;;;15.52;66.98;97073.00;5060797;28;19939;-46
2024/04/03 11:31:25;;;;;;;;;;;;;;;15.62;65.21;97072.00;5061836;28;19951;-46
2024/04/03 11:33:51;;;;;;;;;;;;;;;15.49;66.33;97076.72;5063812;28;19941;-46
2024/04/03 11:36:19;;;;;;;;;;;;;;;15.46;65.46;97082.25;5065508;28;19912;-46
2024/04/03 11:38:45;;;;;;;;;;;;;;;15.61;65.71;97080.84;5064985;28;19938;-46
2024/04/03 11:41:10;;;;;;;;;;;;;;;15.30;65.57;97070.63;5063663;28;19949;-47
2024/04/03 11:43:36;;;;;;;;;;;;;;;15.35;66.42;97078.94;5066840;28;19938;-46
2024/04/03 11:46:02;;;;;;;;;;;;;;;15.32;66.58;97079.22;5069712;28;19913;-46
2024/04/03 11:48:27;;;;;;;;;;;;;;;14.68;67.19;97072.72;5058071;28;19927;-47
2024/04/03 11:50:52;;;;;;;;;;;;;;;14.43;67.09;97075.84;5066549;28;19932;-46
2024/04/03 11:53:17;;;;;;;;;;;;;;;14.38;68.90;97083.25;5064383;28;20331;-46
2024/04/03 11:55:43;;;;;;;;;;;;;;;14.59;70.21;97068.28;5066662;28;19931;-46
2024/04/03 11:58:08;;;;;;;;;;;;;;;14.89;70.27;97070.88;5065636;28;19923;-48
2024/04/03 12:00:33;;;;;;;;;;;;;;;15.13;69.21;97084.41;5063656;28;19992;-46
2024/04/03 12:02:59;;;;;;;;;;;;;;;14.76;68.85;97070.28;5069089;28;19931;-48
2024/04/03 12:05:24;;;;;;;;;;;;;;;14.70;69.41;97065.59;5063227;28;19924;-46
2024/04/03 12:07:49;;;;;;;;;;;;;;;14.63;69.61;97069.69;5065231;28;19919;-46
2024/04/03 12:10:15;;;;;;;;;;;;;;;14.66;70.19;97074.66;5065986;28;20346;-47
2024/04/03 12:12:40;;;;;;;;;;;;;;;14.83;70.26;97074.84;5067898;28;20429;-46
2024/04/03 12:15:07;;;;;;;;;;;;;;;14.84;70.44;97076.47;5069771;28;19946;-46
2024/04/03 12:17:33;;;;;;;;;;;;;;;15.23;70.00;97075.56;5066526;28;19917;-46
2024/04/03 12:22:26;;;;;;;;;;;;;;;14.95;69.80;97075.53;5067036;28;19925;-47
2024/04/03 12:24:51;;;;;;;;;;;;;;;14.63;70.59;97074.94;5066704;28;20224;-46
2024/04/03 12:27:16;;;;;;;;;;;;;;;14.39;71.96;97077.06;5067136;28;20374;-47
2024/04/03 12:29:42;;;;;;;;;;;;;;;14.84;72.41;97068.63;5067943;28;20571;-46
2024/04/03 12:32:07;;;;;;;;;;;;;;;14.78;73.07;97068.34;5065807;28;19925;-46
2024/04/03 12:34:32;;;;;;;;;;;;;;;14.94;72.86;97069.47;5062931;28;20367;-47
2024/04/03 12:36:57;;;;;;;;;;;;;;;14.91;72.57;97071.56;5066124;28;20323;-46
2024/04/03 12:39:23;;;;;;;;;;;;;;;15.38;71.53;97063.75;5063330;28;20329;-45
2024/04/03 12:41:49;;;;;;;;;;;;;;;15.76;70.23;97068.16;5064113;28;20283;-47
2024/04/03 12:44:14;;;;;;;;;;;;;;;15.40;70.96;97063.59;5063192;28;19916;-47
2024/04/03 12:46:39;;;;;;;;;;;;;;;14.85;72.28;97070.31;5063230;28;19966;-46